Time;durP1;ratioP1;P1;durP2;ratioP2;P2;SDS_P1;SDS_P2;PMS_P1;PMS_P2;Temp;Humidity;BMP_temperature;BMP_pressure;BME280_temperature;BME280_humidity;BME280_pressure;Samples;Min_cycle;Max_cycle;Signal;HPM_P1;HPM_P2
2022/11/26 00:03:40;;;;;;;39.40;13.95;;;;;;;7.68;100.00;101611.41;8308099;28;20034;-50
2022/11/26 00:07:46;;;;;;;48.83;15.55;;;;;;;7.71;100.00;101611.22;8316036;28;20384;-54
2022/11/26 00:11:46;;;;;;;50.83;15.05;;;;;;;7.75;100.00;101613.63;8317576;28;20342;-51
2022/11/26 00:15:48;;;;;;;44.80;16.05;;;;;;;7.83;100.00;101622.09;8317656;28;20608;-51
2022/11/26 00:19:48;;;;;;;50.63;15.15;;;;;;;7.80;100.00;101633.03;8315998;28;20045;-54
2022/11/26 00:23:50;;;;;;;55.22;15.98;;;;;;;7.74;100.00;101622.66;8317750;28;20064;-53
2022/11/26 00:27:53;;;;;;;54.40;15.43;;;;;;;7.78;100.00;101634.97;8317457;28;20037;-53
2022/11/26 00:31:54;;;;;;;57.38;15.25;;;;;;;7.80;100.00;101641.13;8315565;28;20088;-51
2022/11/26 00:36:00;;;;;;;50.95;14.38;;;;;;;7.73;100.00;101642.47;8314604;28;20121;-50
2022/11/26 00:40:01;;;;;;;52.55;14.82;;;;;;;7.64;100.00;101643.03;8316784;28;20103;-51
2022/11/26 00:44:02;;;;;;;42.65;14.73;;;;;;;7.65;100.00;101660.91;8315998;28;20061;-54
2022/11/26 00:48:03;;;;;;;42.90;14.50;;;;;;;7.44;100.00;101666.75;8316369;28;20076;-51
2022/11/26 00:52:23;;;;;;;47.08;14.23;;;;;;;7.45;100.00;101663.97;8315521;28;20061;-51
2022/11/26 00:56:23;;;;;;;35.85;13.05;;;;;;;7.41;100.00;101666.94;8316268;28;20030;-50
2022/11/26 01:00:29;;;;;;;43.33;14.10;;;;;;;7.43;100.00;101679.31;8315725;28;20045;-52
2022/11/26 01:04:29;;;;;;;35.30;13.55;;;;;;;7.46;100.00;101679.13;8313854;28;20033;-50
2022/11/26 01:08:33;;;;;;;49.30;13.77;;;;;;;7.40;100.00;101686.69;8315159;28;20049;-50
2022/11/26 01:12:34;;;;;;;38.10;12.88;;;;;;;7.36;100.00;101686.03;8316182;28;20041;-50
2022/11/26 01:16:37;;;;;;;44.20;13.93;;;;;;;7.35;100.00;101696.91;8316791;28;20057;-50
2022/11/26 01:20:38;;;;;;;51.55;14.02;;;;;;;7.28;100.00;101696.38;8315160;28;20041;-51
2022/11/26 01:24:39;;;;;;;45.72;14.45;;;;;;;7.31;100.00;101704.28;8315744;28;20045;-51
2022/11/26 01:28:39;;;;;;;39.97;13.57;;;;;;;7.22;100.00;101694.06;8314037;28;20422;-50
2022/11/26 01:32:40;;;;;;;45.53;13.23;;;;;;;7.25;100.00;101699.25;8316572;28;20034;-50
2022/11/26 01:36:41;;;;;;;34.88;11.77;;;;;;;6.88;100.00;101699.66;8316051;28;20140;-51
2022/11/26 01:41:00;;;;;;;40.90;12.60;;;;;;;6.51;100.00;101708.09;8315139;28;20049;-52
2022/11/26 01:45:01;;;;;;;25.05;10.20;;;;;;;6.13;100.00;101712.00;8310788;28;20121;-51
2022/11/26 01:53:44;;;;;;;26.95;13.25;;;;;;;5.86;100.00;101710.84;8342449;27;20991;-54
2022/11/26 01:57:46;;;;;;;35.47;12.27;;;;;;;5.53;100.00;101716.13;8342699;28;20037;-50
2022/11/26 02:01:50;;;;;;;24.95;11.40;;;;;;;5.40;100.00;101723.03;8357178;28;20105;-51
2022/11/26 02:05:58;;;;;;;39.85;12.15;;;;;;;5.47;100.00;101713.75;8342001;28;20414;-50
2022/11/26 02:09:59;;;;;;;34.53;12.10;;;;;;;5.49;100.00;101708.31;8339125;28;20498;-50
2022/11/26 02:14:06;;;;;;;43.63;14.30;;;;;;;5.58;100.00;101711.38;8343641;28;20041;-55
2022/11/26 02:18:08;;;;;;;37.10;12.68;;;;;;;5.09;100.00;101711.28;8338675;28;20149;-51
2022/11/26 02:22:37;;;;;;;31.13;11.38;;;;;;;4.98;100.00;101705.59;8341569;28;20045;-51
2022/11/26 02:31:06;;;;;;;38.13;14.27;;;;;;;5.06;100.00;101714.13;8313141;28;20401;-51
2022/11/26 02:35:23;;;;;;;33.40;12.73;;;;;;;5.06;100.00;101703.41;8310009;28;20432;-52
2022/11/26 02:39:27;;;;;;;38.00;14.30;;;;;;;5.07;100.00;101697.09;8309625;28;20042;-51
2022/11/26 02:43:28;;;;;;;37.38;13.85;;;;;;;5.03;100.00;101695.53;8311022;28;20069;-51
2022/11/26 02:47:31;;;;;;;29.38;13.13;;;;;;;4.95;100.00;101695.03;8309545;28;20046;-51
2022/11/26 02:51:32;;;;;;;33.97;13.23;;;;;;;4.89;100.00;101698.00;8311115;28;20057;-51
2022/11/26 02:55:37;;;;;;;47.47;14.85;;;;;;;4.74;100.00;101701.44;8311806;28;20117;-52
2022/11/26 02:59:38;;;;;;;31.50;12.75;;;;;;;4.71;100.00;101704.25;8312636;28;20033;-52
2022/11/26 03:03:46;;;;;;;29.50;12.05;;;;;;;4.61;100.00;101708.34;8313392;28;20088;-50
2022/11/26 03:07:49;;;;;;;30.42;11.93;;;;;;;4.55;100.00;101719.34;8311688;28;20042;-51
2022/11/26 03:11:50;;;;;;;36.67;12.88;;;;;;;4.40;100.00;101704.88;8315231;28;20514;-50
2022/11/26 03:15:50;;;;;;;34.75;11.85;;;;;;;4.45;100.00;101724.25;8314628;28;20381;-50
2022/11/26 03:19:52;;;;;;;31.73;11.93;;;;;;;4.46;100.00;101722.44;8313805;28;20041;-50
2022/11/26 03:23:52;;;;;;;30.77;11.77;;;;;;;4.41;100.00;101713.75;8313637;28;20447;-50
2022/11/26 03:27:53;;;;;;;29.77;11.77;;;;;;;4.42;100.00;101734.25;8314064;28;20053;-50
2022/11/26 03:31:53;;;;;;;32.42;12.20;;;;;;;4.32;100.00;101727.56;8314544;28;20419;-52
2022/11/26 03:35:54;;;;;;;30.70;12.77;;;;;;;4.24;100.00;101724.41;8313418;28;20041;-50
2022/11/26 03:39:55;;;;;;;28.58;11.55;;;;;;;4.22;100.00;101732.50;8303501;28;20095;-51
2022/11/26 03:43:55;;;;;;;34.67;12.30;;;;;;;4.38;100.00;101738.88;8291023;28;20042;-51
2022/11/26 03:47:56;;;;;;;26.38;10.27;;;;;;;4.08;100.00;101745.63;8290871;28;20518;-51
2022/11/26 03:51:57;;;;;;;26.42;10.88;;;;;;;3.90;100.00;101751.81;8291027;28;20044;-52
2022/11/26 03:55:57;;;;;;;28.70;10.82;;;;;;;3.93;100.00;101752.56;8290762;28;20038;-50
2022/11/26 03:59:58;;;;;;;31.30;11.13;;;;;;;4.09;100.00;101764.28;8288675;28;20041;-50
2022/11/26 04:03:58;;;;;;;25.45;10.57;;;;;;;4.04;100.00;101773.47;8290612;28;20123;-52
2022/11/26 04:07:59;;;;;;;27.05;9.63;;;;;;;3.92;100.00;101777.56;8290489;28;20038;-53
2022/11/26 04:12:00;;;;;;;28.50;10.35;;;;;;;3.72;100.00;101779.41;8291315;28;20045;-50
2022/11/26 04:16:01;;;;;;;26.85;9.73;;;;;;;3.82;100.00;101784.25;8290060;28;20034;-50
2022/11/26 04:20:02;;;;;;;21.52;9.85;;;;;;;3.77;100.00;101788.94;8289707;28;20329;-49
2022/11/26 04:24:03;;;;;;;26.77;10.30;;;;;;;4.05;100.00;101794.81;8288452;28;20350;-49
2022/11/26 04:28:04;;;;;;;26.75;10.50;;;;;;;4.08;100.00;101805.38;8289361;28;20503;-50
2022/11/26 04:32:05;;;;;;;22.02;9.30;;;;;;;3.93;100.00;101816.75;8290210;28;20419;-51
2022/11/26 04:36:05;;;;;;;27.40;10.30;;;;;;;3.95;100.00;101814.91;8290003;28;20045;-50
2022/11/26 04:40:07;;;;;;;32.50;10.95;;;;;;;3.94;100.00;101807.78;8288903;28;20068;-50
2022/11/26 04:44:08;;;;;;;23.83;9.13;;;;;;;3.88;100.00;101813.41;8289364;28;20172;-53
2022/11/26 04:48:09;;;;;;;22.40;9.95;;;;;;;3.89;100.00;101817.84;8288569;28;20041;-52
2022/11/26 04:52:09;;;;;;;30.65;10.05;;;;;;;3.74;100.00;101826.53;8288277;28;20041;-50
2022/11/26 04:56:10;;;;;;;26.65;10.25;;;;;;;3.89;100.00;101825.88;8288517;28;20167;-51
2022/11/26 05:00:11;;;;;;;26.35;10.10;;;;;;;3.58;100.00;101836.13;8288016;28;20052;-53
2022/11/26 05:04:12;;;;;;;26.65;10.55;;;;;;;3.65;100.00;101834.94;8288361;28;20362;-50
2022/11/26 05:08:13;;;;;;;28.02;10.23;;;;;;;3.75;100.00;101833.59;8289088;28;20116;-50
2022/11/26 05:12:13;;;;;;;22.98;9.00;;;;;;;3.74;100.00;101847.91;8288808;28;20042;-51
2022/11/26 05:16:14;;;;;;;21.55;9.13;;;;;;;3.67;100.00;101850.91;8289288;28;20061;-53
2022/11/26 05:20:15;;;;;;;32.65;10.05;;;;;;;3.66;100.00;101850.03;8287481;28;20034;-51
2022/11/26 05:24:15;;;;;;;23.20;9.23;;;;;;;3.71;100.00;101852.50;8288310;28;20508;-50
2022/11/26 05:28:16;;;;;;;33.55;9.88;;;;;;;3.71;100.00;101842.69;8287831;28;20049;-50
2022/11/26 05:32:17;;;;;;;27.05;11.40;;;;;;;3.79;100.00;101845.88;8288783;28;20413;-51
2022/11/26 05:36:17;;;;;;;25.20;9.13;;;;;;;3.77;100.00;101852.25;8286044;28;20076;-52
2022/11/26 05:40:18;;;;;;;23.40;8.90;;;;;;;3.90;100.00;101857.00;8287348;28;20039;-54
2022/11/26 05:44:18;;;;;;;31.35;9.63;;;;;;;3.92;100.00;101865.84;8288359;28;20458;-54
2022/11/26 05:48:19;;;;;;;23.50;9.02;;;;;;;3.73;100.00;101861.34;8287056;28;20129;-50
2022/11/26 05:52:20;;;;;;;20.17;9.35;;;;;;;3.77;100.00;101863.84;8287328;28;20042;-50
2022/11/26 05:56:21;;;;;;;22.70;8.18;;;;;;;3.83;100.00;101857.34;8287179;28;20041;-50
2022/11/26 06:00:22;;;;;;;29.67;8.43;;;;;;;3.66;100.00;101860.72;8286525;28;20041;-52
2022/11/26 06:04:23;;;;;;;23.50;7.43;;;;;;;3.74;100.00;101858.59;8286790;28;20053;-54
2022/11/26 06:08:23;;;;;;;26.05;8.60;;;;;;;3.80;100.00;101863.69;8286825;28;20108;-51
2022/11/26 06:12:24;;;;;;;14.05;6.63;;;;;;;4.03;100.00;101866.25;8287388;28;20064;-50
2022/11/26 06:16:24;;;;;;;23.42;7.35;;;;;;;4.11;100.00;101862.38;8285235;28;20045;-52
2022/11/26 06:20:25;;;;;;;29.10;7.85;;;;;;;4.23;100.00;101868.06;8284703;28;20570;-51
2022/11/26 06:24:25;;;;;;;21.95;6.80;;;;;;;4.32;100.00;101875.69;8286841;28;20046;-50
2022/11/26 06:28:26;;;;;;;29.75;8.45;;;;;;;4.34;100.00;101881.84;8286120;28;20115;-50
2022/11/26 06:32:28;;;;;;;29.98;7.55;;;;;;;4.34;100.00;101872.94;8286707;28;20050;-50
2022/11/26 06:36:29;;;;;;;21.35;6.97;;;;;;;4.15;100.00;101893.41;8286302;28;20041;-52
2022/11/26 06:40:30;;;;;;;20.30;7.07;;;;;;;3.87;100.00;101894.59;8262891;28;20035;-50
2022/11/26 06:44:30;;;;;;;22.05;6.82;;;;;;;3.92;100.00;101894.41;8253426;28;20085;-50
2022/11/26 06:48:32;;;;;;;28.85;8.32;;;;;;;4.08;100.00;101903.50;8272048;28;20034;-50
2022/11/26 06:52:33;;;;;;;37.85;7.93;;;;;;;4.17;100.00;101905.78;8284974;28;20042;-51
2022/11/26 06:56:34;;;;;;;21.80;8.45;;;;;;;4.11;100.00;101910.56;8286272;28;20046;-52
2022/11/26 07:00:35;;;;;;;32.38;7.85;;;;;;;4.02;100.00;101912.69;8285542;28;20076;-50
2022/11/26 07:04:35;;;;;;;26.85;8.00;;;;;;;3.91;100.00;101914.06;8285561;28;20045;-50
2022/11/26 07:08:36;;;;;;;22.95;8.98;;;;;;;3.79;100.00;101926.13;8285779;28;20037;-50
2022/11/26 07:12:37;;;;;;;20.35;7.70;;;;;;;3.75;100.00;101940.56;8284950;28;20254;-51
2022/11/26 07:16:37;;;;;;;23.38;7.18;;;;;;;3.59;100.00;101944.81;8278909;28;20429;-54
2022/11/26 07:20:38;;;;;;;24.27;8.45;;;;;;;3.79;100.00;101942.19;8290799;28;20065;-50
2022/11/26 07:24:39;;;;;;;26.17;10.00;;;;;;;3.87;100.00;101941.88;8300392;28;20556;-53
2022/11/26 07:28:40;;;;;;;39.05;13.90;;;;;;;3.97;100.00;101957.47;8292509;28;20061;-50
2022/11/26 07:32:40;;;;;;;29.75;10.43;;;;;;;3.94;100.00;101952.25;8283191;28;20068;-50
2022/11/26 07:36:49;;;;;;;34.53;11.70;;;;;;;4.03;100.00;101946.50;8290430;28;20041;-51
2022/11/26 07:40:50;;;;;;;35.75;13.57;;;;;;;3.81;100.00;101951.03;8290924;28;20124;-53
2022/11/26 07:44:51;;;;;;;19.80;7.60;;;;;;;3.91;100.00;101954.19;8270664;28;20039;-51
2022/11/26 07:48:51;;;;;;;26.30;9.77;;;;;;;4.03;100.00;101951.03;8283120;28;20066;-50
2022/11/26 07:52:52;;;;;;;31.45;11.07;;;;;;;4.38;100.00;101952.16;8264586;28;20129;-50
2022/11/26 07:56:53;;;;;;;29.52;10.68;;;;;;;4.58;100.00;101960.22;8288037;28;20092;-54
2022/11/26 08:00:53;;;;;;;32.78;11.77;;;;;;;4.69;100.00;101947.19;8288635;28;20048;-51
2022/11/26 08:04:54;;;;;;;25.95;11.55;;;;;;;4.88;100.00;101954.34;8288992;28;20046;-52
2022/11/26 08:08:57;;;;;;;35.13;14.15;;;;;;;5.02;100.00;101956.38;8289161;28;20381;-52
2022/11/26 08:12:57;;;;;;;43.08;11.80;;;;;;;5.20;100.00;101955.53;8287432;28;20053;-54
2022/11/26 08:16:58;;;;;;;28.25;11.60;;;;;;;5.37;100.00;101953.81;8280562;28;20041;-52
2022/11/26 08:20:59;;;;;;;31.65;14.07;;;;;;;5.50;100.00;101948.75;8290360;28;20048;-52
2022/11/26 08:25:00;;;;;;;36.80;17.42;;;;;;;5.66;100.00;101955.09;8288522;28;20531;-52
2022/11/26 08:29:01;;;;;;;84.63;37.80;;;;;;;5.82;100.00;101956.13;8288877;28;20466;-53
2022/11/26 08:33:02;;;;;;;31.35;13.10;;;;;;;6.35;100.00;101962.38;8288116;28;20468;-51
2022/11/26 08:37:03;;;;;;;25.50;11.25;;;;;;;7.33;100.00;101970.50;8278068;28;20035;-51
2022/11/26 08:41:07;;;;;;;17.58;9.55;;;;;;;7.94;99.87;101968.78;8272749;28;20471;-50
2022/11/26 08:45:08;;;;;;;18.05;8.25;;;;;;;8.35;96.84;101959.16;8284705;28;20117;-50
2022/11/26 08:49:11;;;;;;;21.90;7.55;;;;;;;8.83;94.74;101968.78;8274352;28;20042;-51
2022/11/26 08:53:12;;;;;;;17.90;5.82;;;;;;;8.87;93.14;101967.63;8271707;28;20792;-53
2022/11/26 08:57:12;;;;;;;10.57;4.80;;;;;;;9.12;92.69;101978.66;8284437;28;20463;-51
2022/11/26 09:01:17;;;;;;;10.35;4.78;;;;;;;9.30;92.63;101977.53;8284039;28;20041;-51
2022/11/26 09:05:18;;;;;;;16.13;5.45;;;;;;;9.22;92.55;101979.81;8282123;28;20113;-51
2022/11/26 09:09:19;;;;;;;12.52;5.57;;;;;;;9.27;94.31;101978.56;8278487;28;20045;-53
2022/11/26 09:13:19;;;;;;;12.05;5.75;;;;;;;9.55;93.74;101977.69;8271409;28;20195;-51
2022/11/26 09:17:20;;;;;;;14.77;5.78;;;;;;;9.55;94.30;101983.09;8283257;28;20137;-51
2022/11/26 09:21:22;;;;;;;16.20;6.90;;;;;;;9.93;93.54;101985.03;8249914;28;20034;-51
2022/11/26 09:25:22;;;;;;;14.60;6.40;;;;;;;10.70;91.79;101976.22;8278096;28;20073;-53
2022/11/26 09:29:23;;;;;;;19.73;5.93;;;;;;;12.39;85.23;101987.22;8282740;28;20052;-51
2022/11/26 09:33:25;;;;;;;20.30;5.65;;;;;;;13.46;80.58;101984.16;8283371;28;20033;-52
2022/11/26 09:37:25;;;;;;;14.75;4.38;;;;;;;12.90;80.30;101987.78;8283480;28;20040;-52
2022/11/26 09:42:06;;;;;;;12.88;4.80;;;;;;;11.73;86.26;101987.69;8284624;28;20112;-54
2022/11/26 09:46:11;;;;;;;13.80;5.20;;;;;;;11.35;89.84;101994.97;8283785;28;20058;-51
2022/11/26 09:54:28;;;;;;;17.77;6.47;;;;;;;10.89;94.05;101972.13;8342485;27;20384;-52
2022/11/26 09:58:38;;;;;;;19.10;6.30;;;;;;;10.71;95.95;101984.25;8328911;28;20462;-52
2022/11/26 10:02:39;;;;;;;21.73;6.72;;;;;;;10.67;96.82;101988.09;8366094;28;20095;-50
2022/11/26 10:11:50;;;;;;;21.25;7.70;;;;;;;10.78;96.15;101990.97;8342158;27;20392;-51
2022/11/26 10:24:59;;;;;;;18.83;3.80;;;;;;;11.96;90.47;101994.13;8405268;27;20962;-52
2022/11/26 10:29:21;;;;;;;12.48;4.25;;;;;;;12.98;86.02;102004.31;8394439;27;20319;-53
2022/11/26 10:33:21;;;;;;;8.52;2.97;;;;;;;12.35;87.29;101995.72;8394489;27;20041;-54
2022/11/26 10:37:25;;;;;;;13.70;3.63;;;;;;;11.96;90.15;101987.84;8393047;27;20863;-50
2022/11/26 10:41:30;;;;;;;14.20;3.50;;;;;;;11.65;92.87;101989.25;8393994;27;20418;-52
2022/11/26 10:45:44;;;;;;;15.43;3.78;;;;;;;11.65;94.82;101979.25;8393911;27;20045;-52
2022/11/26 10:49:45;;;;;;;11.30;3.55;;;;;;;11.56;93.89;101990.72;8434088;27;20397;-50
2022/11/26 10:54:04;;;;;;;16.30;3.70;;;;;;;11.51;95.72;101982.06;8444336;27;20135;-52
2022/11/26 10:58:13;;;;;;;11.23;3.00;;;;;;;11.42;95.90;101993.56;8381223;27;20096;-53
2022/11/26 11:06:40;;;;;;;13.82;3.17;;;;;;;11.36;95.38;101990.41;8334076;27;20408;-50
2022/11/26 11:11:00;;;;;;;6.30;2.22;;;;;;;11.55;94.33;101983.56;8332751;28;20041;-53
2022/11/26 11:15:26;;;;;;;12.85;3.13;;;;;;;11.83;93.19;101972.47;8334892;28;20132;-53
2022/11/26 11:19:27;;;;;;;12.88;2.70;;;;;;;11.98;90.65;101954.22;8343783;28;20033;-53
2022/11/26 11:23:32;;;;;;;8.55;2.38;;;;;;;12.02;90.71;101971.13;8329908;28;20040;-53
2022/11/26 11:27:40;;;;;;;14.27;2.55;;;;;;;11.87;90.67;101968.56;8346850;28;20045;-51
2022/11/26 11:31:45;;;;;;;9.73;2.53;;;;;;;11.83;91.64;101972.47;8345024;28;20037;-50
2022/11/26 11:40:27;;;;;;;8.75;3.10;;;;;;;11.83;90.89;101967.06;8315983;28;20394;-50
2022/11/26 11:44:37;;;;;;;;;;;;;;;11.93;91.85;101973.53;8310541;28;20030;-50
2022/11/26 11:48:51;;;;;;;12.15;3.67;;;;;;;12.11;92.27;101962.31;8312288;28;19917;-49
2022/11/26 11:53:32;;;;;;;12.02;3.00;;;;;;;12.25;91.55;101962.09;8289675;28;20468;-53
2022/11/26 11:58:00;;;;;;;18.58;4.05;;;;;;;12.13;91.64;101955.78;8283703;28;20080;-53
2022/11/26 12:02:33;;;;;;;13.63;4.10;;;;;;;12.11;92.45;101951.47;8311887;28;20437;-51
2022/11/26 12:07:13;;;;;;;13.77;4.07;;;;;;;12.19;91.65;101962.56;8310634;28;20037;-49
2022/11/26 12:15:37;;;;;;;17.05;4.00;;;;;;;12.16;90.52;101955.53;8349738;27;20400;-52
2022/11/26 12:19:48;;;;;;;15.32;3.65;;;;;;;12.15;91.13;101956.53;8340656;28;20037;-50
2022/11/26 12:24:12;;;;;;;14.93;3.08;;;;;;;12.24;90.90;101957.66;8326454;28;20316;-53
2022/11/26 12:28:21;;;;;;;14.90;3.35;;;;;;;12.22;90.76;101959.63;8324635;28;20033;-54
2022/11/26 12:32:46;;;;;;;13.75;3.17;;;;;;;12.27;90.84;101966.44;8345551;28;20498;-52
2022/11/26 12:36:55;;;;;;;12.27;3.45;;;;;;;12.29;90.57;101961.75;8343019;28;20048;-53
2022/11/26 12:41:05;;;;;;;12.65;3.33;;;;;;;12.36;91.05;101964.88;8343970;28;20356;-50
2022/11/26 12:45:29;;;;;;;17.30;3.50;;;;;;;12.38;91.01;101962.94;8337104;28;20041;-51
2022/11/26 12:49:43;;;;;;;19.83;3.60;;;;;;;12.32;91.57;101952.56;8326876;28;20045;-53
2022/11/26 12:54:04;;;;;;;12.50;3.17;;;;;;;12.31;91.33;101954.38;8335388;28;20040;-54
2022/11/26 12:58:18;;;;;;;14.65;3.03;;;;;;;12.28;92.57;101949.19;8334063;28;20361;-52
2022/11/26 13:02:29;;;;;;;;;;;;;;;12.29;91.72;101960.91;8344237;28;20509;-53
2022/11/26 13:06:57;;;;;;;12.80;2.50;;;;;;;12.32;89.65;101952.56;8331030;28;19917;-54
2022/11/26 13:11:25;;;;;;;16.50;3.30;;;;;;;12.31;88.89;101953.50;8341728;28;20045;-50
2022/11/26 13:15:34;;;;;;;14.93;2.55;;;;;;;12.27;88.73;101943.88;8328556;28;20495;-53
2022/11/26 13:19:42;;;;;;;13.15;2.42;;;;;;;12.28;87.97;101956.44;8339181;28;20391;-53
2022/11/26 13:24:12;;;;;;;11.77;2.45;;;;;;;12.42;87.05;101943.59;8332691;28;20406;-52
2022/11/26 13:33:08;;;;;;;14.00;2.45;;;;;;;12.65;85.24;101933.66;8315339;28;20782;-54
2022/11/26 13:37:39;;;;;;;13.77;2.95;;;;;;;12.70;85.79;101934.16;8283713;28;20049;-53
2022/11/26 13:42:09;;;;;;;13.95;2.83;;;;;;;12.72;86.44;101930.34;8274212;28;20041;-54
2022/11/26 13:46:23;;;;;;;16.27;2.25;;;;;;;12.60;88.06;101935.88;8275372;28;20324;-54
2022/11/26 13:50:36;;;;;;;12.90;3.47;;;;;;;12.38;89.36;101927.66;8257580;28;20065;-53
2022/11/26 13:55:00;;;;;;;12.68;3.08;;;;;;;12.21;90.08;101922.66;8254727;28;20038;-54
2022/11/26 13:59:07;;;;;;;;;;;;;;;12.12;89.61;101921.53;8265698;28;20247;-54
2022/11/26 14:03:48;;;;;;;14.73;2.53;;;;;;;11.95;90.66;101910.22;8288110;28;20328;-52
2022/11/26 14:07:49;;;;;;;8.77;2.10;;;;;;;11.77;91.93;101907.91;8273913;28;20204;-51
2022/11/26 14:11:53;;;;;;;13.90;2.92;;;;;;;11.64;92.15;101909.78;8275257;28;20511;-50
2022/11/26 14:15:57;;;;;;;18.65;3.42;;;;;;;11.60;91.79;101905.56;8269560;28;20046;-54
2022/11/26 14:20:00;;;;;;;10.07;2.42;;;;;;;11.55;92.22;101910.44;8275642;28;20119;-53
2022/11/26 14:24:01;;;;;;;11.65;2.40;;;;;;;11.51;92.14;101903.53;8275877;28;20480;-51
2022/11/26 14:28:07;;;;;;;9.90;2.05;;;;;;;11.35;92.57;101899.34;8259322;28;20057;-51
2022/11/26 14:32:18;;;;;;;12.23;2.28;;;;;;;11.23;93.53;101890.25;8277663;28;20034;-51
2022/11/26 14:36:24;;;;;;;10.45;2.70;;;;;;;11.11;94.19;101891.16;8263016;28;20041;-51
2022/11/26 14:40:29;;;;;;;15.25;3.55;;;;;;;11.02;95.21;101897.22;8267252;28;20038;-52
2022/11/26 14:44:30;;;;;;;11.30;2.67;;;;;;;10.97;96.35;101893.97;8232965;28;20053;-52
2022/11/26 14:48:34;;;;;;;13.77;2.97;;;;;;;10.92;97.17;101901.53;8239051;28;20035;-51
2022/11/26 14:52:38;;;;;;;11.98;3.03;;;;;;;10.82;98.22;101896.91;8225194;28;20054;-50
2022/11/26 14:56:41;;;;;;;16.48;2.60;;;;;;;10.81;98.80;101904.16;8244946;28;20046;-50
2022/11/26 15:00:42;;;;;;;9.82;2.78;;;;;;;10.71;99.50;101902.22;8256840;28;20092;-52
2022/11/26 15:04:44;;;;;;;15.77;3.08;;;;;;;10.65;99.88;101900.81;8264393;28;20081;-53
2022/11/26 15:08:44;;;;;;;21.67;3.80;;;;;;;10.63;99.69;101900.06;8245789;28;20411;-54
2022/11/26 15:12:49;;;;;;;15.43;3.10;;;;;;;10.49;100.00;101910.94;8250923;28;20058;-53
2022/11/26 15:16:56;;;;;;;7.20;2.83;;;;;;;10.40;100.00;101895.34;8252476;28;20039;-50
2022/11/26 15:20:59;;;;;;;22.80;3.45;;;;;;;10.36;100.00;101901.09;8283454;28;20509;-54
2022/11/26 15:25:00;;;;;;;14.02;3.00;;;;;;;10.33;100.00;101896.75;8250251;28;20041;-53
2022/11/26 15:29:02;;;;;;;16.45;3.55;;;;;;;10.28;100.00;101893.50;8241479;28;20530;-51
2022/11/26 15:33:12;;;;;;;14.27;3.25;;;;;;;10.13;100.00;101899.97;8250370;28;20350;-54
2022/11/26 15:37:13;;;;;;;15.02;3.60;;;;;;;10.06;100.00;101904.00;8244877;28;20043;-52
2022/11/26 15:41:18;;;;;;;16.42;3.20;;;;;;;10.00;100.00;101899.00;8230425;28;20041;-53
2022/11/26 15:45:21;;;;;;;14.00;3.10;;;;;;;9.92;100.00;101895.97;8232986;28;20087;-54
2022/11/26 15:49:28;;;;;;;18.02;4.20;;;;;;;9.84;100.00;101895.63;8248405;28;20575;-53
2022/11/26 15:53:35;;;;;;;15.27;4.53;;;;;;;9.79;100.00;101895.06;8250915;28;20049;-53
2022/11/26 15:57:39;;;;;;;16.15;5.55;;;;;;;9.60;100.00;101916.13;8225265;28;20054;-54
2022/11/26 16:01:43;;;;;;;21.60;4.90;;;;;;;9.52;100.00;101902.28;8224175;28;20412;-54
2022/11/26 16:05:54;;;;;;;17.85;5.47;;;;;;;9.49;100.00;101897.09;8248801;28;20468;-52
2022/11/26 16:14:34;;;;;;;20.42;4.50;;;;;;;9.41;100.00;101894.00;8260944;27;20805;-50
2022/11/26 16:18:38;;;;;;;14.85;3.95;;;;;;;9.41;100.00;101894.00;8265746;28;20043;-50
2022/11/26 16:22:46;;;;;;;20.08;6.15;;;;;;;9.23;100.00;101900.59;8270701;28;20591;-52
2022/11/26 16:27:05;;;;;;;17.58;5.32;;;;;;;9.05;100.00;101904.47;8278485;28;20042;-53
2022/11/26 16:31:07;;;;;;;17.58;8.38;;;;;;;8.93;100.00;101899.84;8245872;28;20042;-50
2022/11/26 16:35:08;;;;;;;19.70;9.43;;;;;;;8.85;100.00;101904.84;8274175;28;20535;-53
2022/11/26 16:39:11;;;;;;;18.83;6.47;;;;;;;8.93;100.00;101902.53;8277068;28;20462;-50
2022/11/26 16:43:13;;;;;;;13.65;5.85;;;;;;;8.93;100.00;101897.13;8269746;28;20516;-50
2022/11/26 16:47:23;;;;;;;21.58;6.10;;;;;;;8.92;100.00;101911.59;8277772;28;20041;-50
2022/11/26 16:51:23;;;;;;;18.40;7.45;;;;;;;8.79;100.00;101910.63;8276715;28;20589;-51
2022/11/26 16:55:25;;;;;;;15.25;5.47;;;;;;;8.78;100.00;101912.44;8263621;28;20039;-52
2022/11/26 16:59:27;;;;;;;16.13;5.47;;;;;;;8.53;100.00;101903.25;8272460;28;20038;-49
2022/11/26 17:03:31;;;;;;;25.85;7.63;;;;;;;8.38;100.00;101910.47;8275056;28;20400;-52
2022/11/26 17:07:39;;;;;;;12.27;4.27;;;;;;;8.44;100.00;101904.72;8249076;28;20399;-51
2022/11/26 17:11:39;;;;;;;14.02;4.50;;;;;;;8.59;100.00;101903.78;8269200;28;20161;-49
2022/11/26 17:15:41;;;;;;;14.15;4.25;;;;;;;8.67;100.00;101901.47;8275049;28;20042;-53
2022/11/26 17:19:41;;;;;;;16.23;3.92;;;;;;;8.86;100.00;101903.88;8275425;28;20528;-50
2022/11/26 17:23:42;;;;;;;14.93;3.47;;;;;;;9.00;99.70;101898.50;8267113;28;20042;-51
2022/11/26 17:27:43;;;;;;;17.67;5.32;;;;;;;9.01;99.14;101900.22;8253801;28;20046;-51
2022/11/26 17:31:44;;;;;;;19.15;4.72;;;;;;;8.92;98.92;101888.19;8255943;28;20046;-50
2022/11/26 17:35:45;;;;;;;17.35;3.75;;;;;;;8.81;99.39;101887.16;8249242;28;20042;-50
2022/11/26 17:39:46;;;;;;;16.05;6.13;;;;;;;8.63;100.00;101888.28;8255866;28;20437;-50
2022/11/26 17:43:47;;;;;;;15.35;6.28;;;;;;;8.64;100.00;101881.91;8253407;28;20041;-51
2022/11/26 17:47:48;;;;;;;22.23;6.15;;;;;;;8.61;99.97;101882.13;8254335;28;20392;-50
2022/11/26 17:51:48;;;;;;;20.50;4.97;;;;;;;8.58;100.00;101885.00;8252555;28;20046;-50
2022/11/26 17:55:49;;;;;;;17.05;4.53;;;;;;;8.53;100.00;101889.78;8255628;28;20496;-49
2022/11/26 17:59:50;;;;;;;25.08;6.28;;;;;;;8.19;100.00;101887.38;8252696;28;20031;-50
2022/11/26 18:03:51;;;;;;;15.60;5.00;;;;;;;8.02;100.00;101883.88;8238746;28;20043;-50
2022/11/26 18:07:52;;;;;;;15.68;4.32;;;;;;;7.95;100.00;101885.22;8225810;28;20093;-49
2022/11/26 18:11:54;;;;;;;11.07;3.92;;;;;;;7.80;100.00;101878.03;8234584;28;20042;-49
2022/11/26 18:15:58;;;;;;;15.25;4.03;;;;;;;7.46;100.00;101875.56;8250085;28;20034;-50
2022/11/26 18:19:59;;;;;;;16.58;4.85;;;;;;;7.41;100.00;101866.88;8232333;28;20091;-49
2022/11/26 18:24:00;;;;;;;15.95;5.20;;;;;;;7.27;100.00;101869.50;8222668;28;20035;-51
2022/11/26 18:28:01;;;;;;;14.68;5.20;;;;;;;7.12;100.00;101870.34;8247219;28;20117;-52
2022/11/26 18:32:01;;;;;;;14.02;6.22;;;;;;;7.12;100.00;101862.28;8253136;28;20577;-49
2022/11/26 18:36:02;;;;;;;21.63;6.95;;;;;;;7.14;100.00;101856.81;8253979;28;20460;-49
2022/11/26 18:40:05;;;;;;;20.83;5.53;;;;;;;7.14;100.00;101852.28;8266881;28;20100;-52
2022/11/26 18:44:06;;;;;;;17.35;6.13;;;;;;;7.16;100.00;101853.06;8234790;28;20129;-49
2022/11/26 18:48:08;;;;;;;15.70;6.00;;;;;;;7.18;100.00;101864.63;8221352;28;20051;-53
2022/11/26 18:52:08;;;;;;;14.02;6.35;;;;;;;7.13;100.00;101860.44;8236443;28;20121;-50
2022/11/26 18:56:13;;;;;;;22.67;5.93;;;;;;;7.03;100.00;101859.22;8221614;28;20039;-51
2022/11/26 19:00:14;;;;;;;21.83;6.90;;;;;;;6.97;100.00;101860.44;8239553;28;20193;-53
2022/11/26 19:04:16;;;;;;;23.42;8.32;;;;;;;6.88;100.00;101850.19;8238668;28;20082;-53
2022/11/26 19:08:18;;;;;;;22.90;8.60;;;;;;;6.71;100.00;101863.69;8254432;28;20069;-50
2022/11/26 19:12:19;;;;;;;24.63;6.63;;;;;;;6.75;100.00;101859.91;8254147;28;20483;-50
2022/11/26 19:16:22;;;;;;;22.40;7.13;;;;;;;6.77;100.00;101857.97;8251839;28;20038;-54
2022/11/26 19:20:23;;;;;;;31.58;11.80;;;;;;;6.69;100.00;101844.09;8250163;28;20062;-52
2022/11/26 19:24:24;;;;;;;37.42;11.98;;;;;;;6.55;100.00;101830.53;8254546;28;20037;-54
2022/11/26 19:28:25;;;;;;;23.45;8.50;;;;;;;6.47;100.00;101819.34;8251132;28;20042;-53
2022/11/26 19:32:26;;;;;;;25.02;8.70;;;;;;;6.41;100.00;101822.38;8249431;28;20042;-51
2022/11/26 19:36:28;;;;;;;18.00;5.30;;;;;;;6.31;100.00;101823.78;8253001;28;20042;-53